Time;durP1;ratioP1;P1;durP2;ratioP2;P2;SDS_P1;SDS_P2;PMS_P1;PMS_P2;Temp;Humidity;BMP_temperature;BMP_pressure;BME280_temperature;BME280_humidity;BME280_pressure;Samples;Min_cycle;Max_cycle;Signal;HPM_P1;HPM_P2
2022/01/28 00:01:49;;;;;;;11.03;1.43;;;;;;;;;;5019213;28;20029;-78
2022/01/28 00:04:17;;;;;;;12.27;1.40;;;;;;;;;;5019700;28;20124;-75
2022/01/28 00:06:44;;;;;;;9.00;1.00;;;;;;;;;;5017408;28;20033;-78
2022/01/28 00:09:12;;;;;;;9.47;1.53;;;;;;;;;;5033086;28;20037;-77
2022/01/28 00:11:38;;;;;;;5.17;1.00;;;;;;;;;;5016717;28;20180;-77
2022/01/28 00:38:54;;;;;;;3.37;1.07;;;;;;;;;;5018773;28;20037;-77
2022/01/28 00:41:22;;;;;;;4.73;1.03;;;;;;;;;;5017239;28;20025;-76
2022/01/28 00:43:48;;;;;;;12.63;1.50;;;;;;;;;;5030692;28;20034;-77
2022/01/28 00:46:14;;;;;;;1.10;0.60;;;;;;;;;;5031459;28;20038;-77
2022/01/28 00:48:43;;;;;;;8.03;1.47;;;;;;;;;;5016253;28;20033;-76
2022/01/28 00:51:12;;;;;;;4.97;1.23;;;;;;;;;;5029304;28;20140;-77
2022/01/28 00:53:40;;;;;;;3.80;0.87;;;;;;;;;;5031874;28;20057;-78
2022/01/28 00:56:08;;;;;;;8.33;0.77;;;;;;;;;;5030563;28;20042;-79
2022/01/28 00:58:34;;;;;;;10.70;1.40;;;;;;;;;;5031830;28;20153;-78
2022/01/28 01:01:00;;;;;;;2.07;0.70;;;;;;;;;;5032297;28;20419;-79
2022/01/28 01:03:26;;;;;;;10.13;0.93;;;;;;;;;;5021893;28;20040;-77
2022/01/28 01:05:52;;;;;;;7.30;1.00;;;;;;;;;;5016371;28;20038;-76
2022/01/28 01:08:20;;;;;;;6.50;1.37;;;;;;;;;;5031208;28;20064;-78
2022/01/28 01:10:46;;;;;;;4.80;1.77;;;;;;;;;;5030769;28;20033;-78
2022/01/28 01:13:12;;;;;;;5.33;0.77;;;;;;;;;;5023044;28;20041;-77
2022/01/28 01:15:44;;;;;;;1.10;0.83;;;;;;;;;;5018601;28;20041;-79
2022/01/28 01:18:27;;;;;;;5.27;1.23;;;;;;;;;;5020099;28;20481;-76
2022/01/28 01:21:06;;;;;;;;;;;;;;;;;;5020338;28;20826;-76
2022/01/28 01:23:35;;;;;;;9.37;1.37;;;;;;;;;;5024803;28;19924;-76
2022/01/28 01:28:36;;;;;;;3.67;0.70;;;;;;;;;;5021563;28;20044;-77
2022/01/28 01:31:04;;;;;;;6.03;0.95;;;;;;;;;;5034394;28;20048;-77
2022/01/28 01:33:34;;;;;;;3.80;0.90;;;;;;;;;;5020525;28;20041;-76
2022/01/28 01:36:02;;;;;;;5.17;0.83;;;;;;;;;;5033781;28;20026;-75
2022/01/28 01:38:32;;;;;;;3.20;0.80;;;;;;;;;;5025478;28;20456;-78
2022/01/28 01:41:03;;;;;;;10.63;1.30;;;;;;;;;;5035924;28;21671;-77
2022/01/28 01:54:04;;;;;;;6.60;1.43;;;;;;;;;;5020012;28;20052;-77
2022/01/28 01:56:31;;;;;;;7.23;1.47;;;;;;;;;;5033124;28;20083;-76
2022/01/28 01:58:59;;;;;;;6.60;0.97;;;;;;;;;;5025253;28;20052;-78
2022/01/28 02:01:26;;;;;;;1.40;0.77;;;;;;;;;;5033451;28;20040;-78
2022/01/28 02:03:52;;;;;;;6.87;2.60;;;;;;;;;;5034637;28;20112;-77
2022/01/28 02:06:18;;;;;;;4.20;1.33;;;;;;;;;;5019556;28;21714;-77
2022/01/28 02:08:47;;;;;;;9.53;1.00;;;;;;;;;;5034129;28;20049;-77
2022/01/28 02:11:14;;;;;;;8.97;0.97;;;;;;;;;;5033548;28;20076;-76
2022/01/28 02:13:41;;;;;;;12.50;1.10;;;;;;;;;;5033708;28;20105;-77
2022/01/28 02:16:09;;;;;;;3.20;0.90;;;;;;;;;;5032889;28;20040;-77
2022/01/28 02:18:37;;;;;;;10.37;1.60;;;;;;;;;;5019315;28;20034;-76
2022/01/28 02:21:09;;;;;;;5.43;0.60;;;;;;;;;;5034286;28;21665;-78
2022/01/28 02:23:35;;;;;;;13.15;2.20;;;;;;;;;;5032723;28;20021;-76
2022/01/28 02:26:04;;;;;;;6.40;0.90;;;;;;;;;;5030978;28;20053;-77
2022/01/28 02:28:35;;;;;;;7.43;1.33;;;;;;;;;;5019120;28;20160;-76
2022/01/28 02:31:05;;;;;;;6.37;0.80;;;;;;;;;;5033189;28;20095;-78
2022/01/28 02:33:31;;;;;;;10.10;1.37;;;;;;;;;;5018517;28;20030;-79
2022/01/28 02:36:04;;;;;;;14.43;1.73;;;;;;;;;;5032118;28;20036;-77
2022/01/28 02:38:35;;;;;;;4.30;1.03;;;;;;;;;;5033738;28;20113;-80
2022/01/28 02:41:05;;;;;;;6.37;0.70;;;;;;;;;;5031932;28;20036;-74
2022/01/28 02:43:39;;;;;;;6.63;1.50;;;;;;;;;;5020176;28;20033;-77
2022/01/28 02:46:09;;;;;;;10.03;1.77;;;;;;;;;;5032353;28;20437;-77
2022/01/28 02:48:38;;;;;;;11.57;1.10;;;;;;;;;;5033392;28;20030;-77
2022/01/28 02:51:11;;;;;;;11.10;1.43;;;;;;;;;;5032270;28;20029;-79
2022/01/28 02:53:48;;;;;;;9.70;1.20;;;;;;;;;;5032564;28;20108;-79
2022/01/28 02:56:34;;;;;;;8.20;0.80;;;;;;;;;;5019727;28;20115;-78
2022/01/28 02:59:00;;;;;;;9.47;1.33;;;;;;;;;;5018415;28;20080;-78
2022/01/28 03:01:29;;;;;;;8.47;1.47;;;;;;;;;;5031935;28;20041;-76
2022/01/28 03:04:00;;;;;;;5.17;1.10;;;;;;;;;;5032818;28;20422;-78
2022/01/28 03:06:28;;;;;;;14.17;1.43;;;;;;;;;;5018662;28;20052;-80
2022/01/28 03:08:59;;;;;;;11.97;1.97;;;;;;;;;;5031793;28;20033;-79
2022/01/28 03:16:24;;;;;;;8.67;1.13;;;;;;;;;;5019211;28;20042;-78
2022/01/28 03:18:57;;;;;;;10.23;1.83;;;;;;;;;;5032853;28;20176;-78
2022/01/28 03:23:53;;;;;;;6.90;1.80;;;;;;;;;;5016766;28;20021;-76
2022/01/28 03:26:19;;;;;;;14.80;1.10;;;;;;;;;;5032356;28;20025;-79
2022/01/28 03:28:45;;;;;;;5.30;1.07;;;;;;;;;;5022998;28;20128;-78
2022/01/28 03:31:11;;;;;;;15.93;1.77;;;;;;;;;;5032523;28;20226;-77
2022/01/28 03:33:37;;;;;;;5.37;1.13;;;;;;;;;;5032175;28;20029;-75
2022/01/28 03:36:10;;;;;;;11.03;2.13;;;;;;;;;;5024222;28;20118;-78
2022/01/28 03:38:36;;;;;;;8.80;0.77;;;;;;;;;;5013982;28;21592;-77
2022/01/28 03:41:02;;;;;;;4.00;1.17;;;;;;;;;;5017969;28;20367;-78
2022/01/28 03:43:28;;;;;;;7.90;0.87;;;;;;;;;;5016981;28;20021;-77
2022/01/28 03:45:54;;;;;;;18.37;1.63;;;;;;;;;;5018059;28;20033;-80
2022/01/28 03:48:20;;;;;;;7.40;1.30;;;;;;;;;;5017997;28;20034;-76
2022/01/28 03:50:46;;;;;;;3.57;0.73;;;;;;;;;;5032135;28;20041;-77
2022/01/28 03:53:12;;;;;;;9.53;1.13;;;;;;;;;;5015603;28;20126;-79
2022/01/28 03:55:38;;;;;;;6.93;1.83;;;;;;;;;;5018214;28;20622;-77
2022/01/28 03:58:05;;;;;;;9.00;1.00;;;;;;;;;;5018632;28;20120;-76
2022/01/28 04:00:31;;;;;;;6.80;0.93;;;;;;;;;;5031873;28;20029;-79
2022/01/28 04:03:12;;;;;;;6.73;1.33;;;;;;;;;;5033381;28;20118;-79
2022/01/28 04:13:50;;;;;;;8.13;0.90;;;;;;;;;;5016573;28;20084;-78
2022/01/28 04:18:42;;;;;;;7.17;1.37;;;;;;;;;;5018507;28;20100;-77
2022/01/28 04:21:08;;;;;;;8.03;0.60;;;;;;;;;;5015737;28;21036;-76
2022/01/28 04:23:34;;;;;;;7.00;0.80;;;;;;;;;;5016347;28;20022;-78
2022/01/28 04:26:02;;;;;;;20.33;1.17;;;;;;;;;;5016918;28;20436;-77
2022/01/28 04:28:28;;;;;;;8.93;0.80;;;;;;;;;;5031554;28;20030;-78
2022/01/28 04:30:54;;;;;;;15.87;1.17;;;;;;;;;;5018443;28;20033;-77
2022/01/28 04:33:20;;;;;;;8.30;1.43;;;;;;;;;;5021599;28;20034;-78
2022/01/28 04:35:52;;;;;;;4.07;1.40;;;;;;;;;;5031069;28;20402;-76
2022/01/28 04:44:12;;;;;;;9.00;1.37;;;;;;;;;;5010179;28;20272;-75
2022/01/28 04:46:52;;;;;;;4.23;0.73;;;;;;;;;;5017344;28;20029;-78
2022/01/28 04:49:31;;;;;;;14.00;1.23;;;;;;;;;;5031093;28;20041;-78
2022/01/28 04:57:36;;;;;;;6.60;1.23;;;;;;;;;;5022888;28;20332;-77
2022/01/28 05:00:17;;;;;;;6.50;1.00;;;;;;;;;;5035076;28;20045;-76
2022/01/28 05:26:41;;;;;;;12.17;1.37;;;;;;;;;;5020657;28;20281;-77
2022/01/28 05:29:07;;;;;;;10.05;1.10;;;;;;;;;;5033486;28;20319;-77
2022/01/28 05:31:33;;;;;;;9.50;1.30;;;;;;;;;;5032945;28;20095;-78
2022/01/28 05:34:01;;;;;;;11.30;1.20;;;;;;;;;;5020754;28;20338;-77
2022/01/28 05:36:30;;;;;;;4.87;0.93;;;;;;;;;;5035437;28;20359;-76
2022/01/28 05:38:56;;;;;;;5.13;1.17;;;;;;;;;;5037114;28;20097;-78
2022/01/28 05:41:22;;;;;;;9.27;1.47;;;;;;;;;;5032630;28;20276;-78
2022/01/28 05:43:48;;;;;;;6.13;0.87;;;;;;;;;;5019588;28;20044;-77
2022/01/28 05:46:17;;;;;;;4.87;1.00;;;;;;;;;;5033533;28;20291;-77
2022/01/28 05:48:43;;;;;;;5.90;1.30;;;;;;;;;;5019611;28;20604;-77
2022/01/28 05:51:12;;;;;;;15.80;1.90;;;;;;;;;;5033968;28;20376;-78
2022/01/28 05:53:38;;;;;;;9.57;1.50;;;;;;;;;;5024100;28;20037;-79
2022/01/28 05:56:04;;;;;;;13.73;1.57;;;;;;;;;;5033490;28;20285;-76
2022/01/28 05:58:30;;;;;;;16.53;1.30;;;;;;;;;;5033073;28;20427;-77
2022/01/28 06:00:56;;;;;;;9.73;1.60;;;;;;;;;;5033997;28;20284;-78
2022/01/28 06:03:22;;;;;;;13.13;1.67;;;;;;;;;;5032540;28;20041;-75
2022/01/28 06:05:48;;;;;;;12.30;1.03;;;;;;;;;;5033493;28;20095;-78
2022/01/28 06:08:15;;;;;;;9.27;1.33;;;;;;;;;;5032580;28;20527;-78
2022/01/28 06:10:41;;;;;;;8.73;1.23;;;;;;;;;;5019976;28;20290;-75
2022/01/28 06:13:11;;;;;;;25.20;2.00;;;;;;;;;;5024593;28;20038;-76
2022/01/28 06:15:39;;;;;;;10.40;1.17;;;;;;;;;;5019151;28;20112;-77
2022/01/28 06:18:07;;;;;;;8.17;1.10;;;;;;;;;;5018162;28;20394;-76
2022/01/28 06:20:33;;;;;;;13.50;2.30;;;;;;;;;;5020569;28;20705;-77
2022/01/28 06:22:59;;;;;;;10.00;1.57;;;;;;;;;;5034516;28;20299;-77
2022/01/28 06:25:25;;;;;;;9.60;1.30;;;;;;;;;;5018830;28;20035;-76
2022/01/28 06:27:53;;;;;;;4.00;1.03;;;;;;;;;;5033884;28;20045;-76
2022/01/28 06:30:20;;;;;;;1.73;1.00;;;;;;;;;;5034680;28;20045;-77
2022/01/28 06:32:47;;;;;;;7.83;1.60;;;;;;;;;;5034496;28;20037;-76
2022/01/28 06:35:13;;;;;;;11.23;1.50;;;;;;;;;;5016489;28;20375;-78
2022/01/28 06:37:41;;;;;;;5.27;2.13;;;;;;;;;;5020079;28;20292;-77
2022/01/28 06:40:07;;;;;;;7.33;2.33;;;;;;;;;;5018508;28;20167;-78
2022/01/28 06:42:36;;;;;;;10.40;1.37;;;;;;;;;;5033389;28;20273;-77
2022/01/28 06:45:02;;;;;;;6.73;1.53;;;;;;;;;;5033824;28;20283;-77
2022/01/28 06:47:31;;;;;;;6.70;1.50;;;;;;;;;;5016882;28;20038;-78
2022/01/28 06:49:58;;;;;;;6.40;1.53;;;;;;;;;;5018759;28;20287;-76
2022/01/28 06:52:24;;;;;;;11.27;2.07;;;;;;;;;;5023176;28;20374;-76
2022/01/28 06:54:52;;;;;;;4.53;1.33;;;;;;;;;;5033857;28;20366;-79
2022/01/28 06:57:18;;;;;;;6.03;1.23;;;;;;;;;;5034040;28;20033;-77
2022/01/28 06:59:45;;;;;;;8.83;2.07;;;;;;;;;;5019646;28;20052;-77
2022/01/28 07:02:12;;;;;;;7.00;3.00;;;;;;;;;;5018401;28;20030;-76
2022/01/28 07:04:38;;;;;;;9.40;1.93;;;;;;;;;;5033389;28;20343;-78
2022/01/28 07:07:05;;;;;;;13.50;1.80;;;;;;;;;;5032175;28;20316;-76
2022/01/28 07:09:35;;;;;;;18.17;2.23;;;;;;;;;;5034845;28;20038;-75
2022/01/28 07:12:03;;;;;;;5.67;1.40;;;;;;;;;;5033830;28;20033;-76
2022/01/28 07:14:29;;;;;;;7.20;2.47;;;;;;;;;;5023974;28;20376;-76
2022/01/28 07:16:55;;;;;;;10.77;1.73;;;;;;;;;;5018750;28;20680;-78
2022/01/28 07:19:21;;;;;;;7.53;2.17;;;;;;;;;;5033709;28;20041;-78
2022/01/28 07:21:49;;;;;;;6.00;2.00;;;;;;;;;;5033618;28;20302;-76
2022/01/28 07:24:15;;;;;;;3.50;1.77;;;;;;;;;;5034057;28;20121;-77
2022/01/28 07:26:43;;;;;;;24.63;2.20;;;;;;;;;;5032688;28;20331;-78
2022/01/28 07:29:13;;;;;;;12.53;1.40;;;;;;;;;;5032078;28;20276;-77
2022/01/28 07:31:39;;;;;;;3.13;1.20;;;;;;;;;;5032952;28;20134;-79
2022/01/28 07:34:06;;;;;;;6.47;2.63;;;;;;;;;;5019928;28;20272;-78
2022/01/28 07:36:32;;;;;;;26.60;3.63;;;;;;;;;;5023994;28;20280;-76
2022/01/28 07:39:01;;;;;;;7.80;1.40;;;;;;;;;;5023206;28;20312;-78
2022/01/28 07:41:31;;;;;;;6.37;2.03;;;;;;;;;;5020074;28;20362;-75
2022/01/28 07:43:57;;;;;;;6.80;1.93;;;;;;;;;;5032833;28;20681;-75
2022/01/28 07:46:23;;;;;;;10.20;1.80;;;;;;;;;;5031824;28;20332;-78
2022/01/28 07:48:50;;;;;;;11.00;1.60;;;;;;;;;;5014503;28;20046;-77
2022/01/28 07:51:19;;;;;;;9.80;2.00;;;;;;;;;;5018465;28;20314;-77
2022/01/28 07:53:45;;;;;;;13.67;1.60;;;;;;;;;;5031565;28;20287;-78
2022/01/28 07:56:12;;;;;;;8.20;0.80;;;;;;;;;;5018319;28;20221;-78
2022/01/28 07:58:40;;;;;;;11.57;1.40;;;;;;;;;;5033386;28;20305;-76
2022/01/28 08:01:06;;;;;;;6.30;1.17;;;;;;;;;;5031856;28;20025;-78
2022/01/28 08:03:32;;;;;;;6.30;1.80;;;;;;;;;;5030645;28;20026;-77
2022/01/28 08:05:58;;;;;;;5.37;1.63;;;;;;;;;;5032033;28;20198;-78
2022/01/28 08:08:24;;;;;;;13.17;1.47;;;;;;;;;;5014915;28;20427;-78
2022/01/28 08:10:50;;;;;;;14.80;1.23;;;;;;;;;;5031581;28;20218;-75
2022/01/28 08:13:18;;;;;;;7.33;1.23;;;;;;;;;;5023362;28;20464;-78
2022/01/28 08:15:47;;;;;;;9.20;2.03;;;;;;;;;;5034227;28;20037;-76
2022/01/28 08:18:13;;;;;;;3.27;1.33;;;;;;;;;;5019250;28;20033;-77
2022/01/28 08:20:39;;;;;;;6.73;1.90;;;;;;;;;;5034989;28;20030;-79
2022/01/28 08:23:07;;;;;;;7.23;2.00;;;;;;;;;;5020591;28;20036;-78
2022/01/28 08:25:36;;;;;;;21.10;2.13;;;;;;;;;;5036927;28;20442;-75
2022/01/28 08:28:03;;;;;;;7.13;1.80;;;;;;;;;;5022482;28;20037;-77
2022/01/28 08:30:29;;;;;;;16.93;2.27;;;;;;;;;;5036590;28;20072;-78
2022/01/28 08:32:58;;;;;;;6.93;1.23;;;;;;;;;;5041641;28;20088;-75
2022/01/28 08:35:34;;;;;;;6.90;1.50;;;;;;;;;;5022909;28;20057;-76
2022/01/28 08:38:02;;;;;;;10.70;1.87;;;;;;;;;;5023245;28;20120;-76
2022/01/28 08:40:29;;;;;;;15.73;2.13;;;;;;;;;;5039998;28;20573;-77
2022/01/28 08:42:56;;;;;;;3.20;1.40;;;;;;;;;;5045588;28;20029;-79
2022/01/28 08:45:26;;;;;;;11.83;3.40;;;;;;;;;;5028550;28;20458;-76
2022/01/28 08:47:56;;;;;;;17.73;1.90;;;;;;;;;;5024850;28;20091;-78
2022/01/28 08:50:24;;;;;;;9.23;1.53;;;;;;;;;;5039258;28;20030;-78
2022/01/28 08:52:50;;;;;;;5.33;1.80;;;;;;;;;;5043837;28;20072;-79
2022/01/28 08:55:18;;;;;;;10.10;1.77;;;;;;;;;;5041037;28;20068;-76
2022/01/28 08:57:44;;;;;;;3.77;1.83;;;;;;;;;;5026573;28;20040;-76
2022/01/28 09:00:12;;;;;;;13.67;2.27;;;;;;;;;;5030145;28;20987;-76
2022/01/28 09:02:39;;;;;;;11.37;2.23;;;;;;;;;;5027272;28;20450;-78
2022/01/28 09:05:08;;;;;;;8.83;2.07;;;;;;;;;;5022315;28;20203;-77
2022/01/28 09:07:34;;;;;;;6.53;1.87;;;;;;;;;;5023362;28;20045;-77
2022/01/28 09:10:06;;;;;;;12.13;2.33;;;;;;;;;;5027612;28;20047;-76
2022/01/28 09:12:39;;;;;;;9.25;1.98;;;;;;;;;;5024880;28;20033;-77
2022/01/28 09:15:06;;;;;;;7.37;1.80;;;;;;;;;;5038533;28;20034;-77
2022/01/28 09:17:32;;;;;;;8.40;2.70;;;;;;;;;;5026990;28;20025;-76
2022/01/28 09:19:58;;;;;;;4.47;2.03;;;;;;;;;;5040563;28;20026;-78
2022/01/28 09:22:25;;;;;;;10.87;3.60;;;;;;;;;;5038046;28;20037;-78
2022/01/28 09:24:52;;;;;;;15.97;3.10;;;;;;;;;;5037123;28;20034;-76
2022/01/28 09:27:24;;;;;;;20.43;3.70;;;;;;;;;;5023393;28;20029;-74
2022/01/28 09:29:50;;;;;;;5.18;2.25;;;;;;;;;;5025139;28;20142;-77
2022/01/28 09:32:16;;;;;;;7.63;3.10;;;;;;;;;;5024154;28;21631;-78
2022/01/28 09:34:43;;;;;;;11.73;3.17;;;;;;;;;;5024965;28;20040;-76
2022/01/28 09:37:13;;;;;;;8.77;3.93;;;;;;;;;;5024034;28;20037;-78
2022/01/28 09:39:43;;;;;;;15.83;3.97;;;;;;;;;;5038903;28;20958;-78
2022/01/28 09:42:15;;;;;;;9.10;4.23;;;;;;;;;;5040032;28;20025;-76
2022/01/28 09:44:42;;;;;;;12.43;3.70;;;;;;;;;;5039066;28;21595;-78
2022/01/28 09:47:11;;;;;;;5.63;3.07;;;;;;;;;;5026017;28;20458;-79
2022/01/28 09:49:39;;;;;;;14.83;4.87;;;;;;;;;;5038282;28;20079;-74
2022/01/28 09:52:05;;;;;;;6.37;2.93;;;;;;;;;;5038876;28;20047;-77
2022/01/28 09:54:31;;;;;;;13.93;3.63;;;;;;;;;;5038923;28;20061;-77
2022/01/28 09:56:59;;;;;;;12.17;4.13;;;;;;;;;;5023377;28;20026;-76
2022/01/28 09:59:25;;;;;;;6.20;2.23;;;;;;;;;;5032370;28;20029;-75
2022/01/28 10:01:51;;;;;;;5.30;2.73;;;;;;;;;;5020662;28;20124;-76
2022/01/28 10:04:18;;;;;;;9.93;3.00;;;;;;;;;;5034521;28;20679;-77
2022/01/28 10:06:45;;;;;;;13.07;2.40;;;;;;;;;;5019309;28;20033;-76
2022/01/28 10:09:12;;;;;;;3.67;1.93;;;;;;;;;;5032958;28;20041;-77
2022/01/28 10:11:40;;;;;;;6.57;2.40;;;;;;;;;;5021318;28;20125;-78
2022/01/28 10:14:12;;;;;;;13.50;2.40;;;;;;;;;;5019454;28;20038;-77
2022/01/28 10:16:38;;;;;;;11.45;2.67;;;;;;;;;;5036945;28;20033;-75
2022/01/28 10:19:08;;;;;;;7.47;2.37;;;;;;;;;;5021113;28;20038;-75
2022/01/28 10:21:45;;;;;;;7.60;1.83;;;;;;;;;;5032401;28;20068;-77
2022/01/28 10:24:15;;;;;;;8.10;2.17;;;;;;;;;;5034469;28;20040;-76
2022/01/28 10:26:44;;;;;;;16.20;3.07;;;;;;;;;;5020511;28;20026;-77
2022/01/28 10:29:14;;;;;;;7.67;1.70;;;;;;;;;;5018333;28;20037;-76
2022/01/28 10:31:58;;;;;;;7.20;2.50;;;;;;;;;;5023390;28;20033;-76
2022/01/28 10:34:35;;;;;;;6.87;1.90;;;;;;;;;;5032429;28;20056;-77
2022/01/28 10:37:13;;;;;;;12.23;2.60;;;;;;;;;;5032458;28;21584;-76
2022/01/28 10:39:44;;;;;;;11.10;3.07;;;;;;;;;;5017077;28;20029;-78
2022/01/28 10:42:11;;;;;;;11.53;2.33;;;;;;;;;;5034655;28;20126;-76
2022/01/28 10:44:50;;;;;;;7.57;3.07;;;;;;;;;;5018255;28;20116;-75
2022/01/28 10:47:28;;;;;;;9.33;2.17;;;;;;;;;;5031839;28;20045;-76
2022/01/28 10:49:56;;;;;;;10.93;3.00;;;;;;;;;;5018175;28;20026;-78
2022/01/28 10:52:31;;;;;;;13.93;2.47;;;;;;;;;;5033138;28;21622;-78
2022/01/28 10:54:57;;;;;;;4.73;1.73;;;;;;;;;;5032812;28;20029;-75
2022/01/28 10:57:25;;;;;;;22.07;3.57;;;;;;;;;;5024514;28;20033;-77
2022/01/28 10:59:59;;;;;;;5.63;3.03;;;;;;;;;;5019036;28;20030;-75
2022/01/28 11:02:26;;;;;;;4.20;2.00;;;;;;;;;;5019143;28;20049;-78
2022/01/28 11:04:55;;;;;;;13.20;3.03;;;;;;;;;;5018608;28;20390;-77
2022/01/28 11:07:23;;;;;;;14.40;2.17;;;;;;;;;;5031584;28;20033;-77
2022/01/28 11:09:49;;;;;;;11.80;2.90;;;;;;;;;;5032212;28;20029;-78
2022/01/28 11:12:16;;;;;;;13.10;2.43;;;;;;;;;;5017869;28;20033;-77
2022/01/28 11:14:42;;;;;;;17.53;2.63;;;;;;;;;;5017464;28;20036;-78
2022/01/28 11:17:11;;;;;;;8.73;2.97;;;;;;;;;;5031798;28;20029;-79
2022/01/28 11:19:38;;;;;;;8.70;2.40;;;;;;;;;;5016010;28;20030;-75
2022/01/28 11:22:09;;;;;;;6.77;2.23;;;;;;;;;;5016495;28;20604;-78
2022/01/28 11:24:35;;;;;;;8.10;1.97;;;;;;;;;;5031620;28;20021;-76
2022/01/28 11:27:06;;;;;;;3.87;1.13;;;;;;;;;;5017132;28;20107;-76
2022/01/28 11:29:32;;;;;;;4.57;2.17;;;;;;;;;;5017764;28;20029;-78
2022/01/28 11:32:08;;;;;;;9.20;1.63;;;;;;;;;;5022372;28;20045;-76
2022/01/28 11:34:34;;;;;;;5.23;1.13;;;;;;;;;;5030659;28;20029;-76
2022/01/28 11:37:03;;;;;;;10.60;1.43;;;;;;;;;;5031040;28;20034;-77
2022/01/28 11:39:34;;;;;;;5.93;1.27;;;;;;;;;;5015806;28;20040;-77
2022/01/28 11:42:06;;;;;;;4.67;0.80;;;;;;;;;;5014298;28;20706;-76
2022/01/28 11:44:54;;;;;;;5.43;2.00;;;;;;;;;;5015901;28;20460;-76
2022/01/28 11:47:40;;;;;;;2.40;0.87;;;;;;;;;;5015012;28;20017;-77
2022/01/28 11:50:06;;;;;;;18.50;3.57;;;;;;;;;;5026947;28;20365;-76
2022/01/28 11:52:36;;;;;;;7.20;1.20;;;;;;;;;;5021741;28;20033;-74
2022/01/28 11:55:26;;;;;;;7.63;1.63;;;;;;;;;;5030114;28;20485;-74
2022/01/28 11:57:55;;;;;;;7.27;1.63;;;;;;;;;;5015491;28;20362;-76
2022/01/28 12:00:36;;;;;;;4.90;1.63;;;;;;;;;;5013046;28;20036;-76
2022/01/28 12:03:14;;;;;;;9.90;2.03;;;;;;;;;;5015087;28;20052;-77
2022/01/28 12:05:40;;;;;;;3.87;1.17;;;;;;;;;;5015424;28;20151;-76
2022/01/28 12:08:09;;;;;;;5.10;1.70;;;;;;;;;;5029449;28;20179;-74
2022/01/28 12:10:40;;;;;;;4.83;0.90;;;;;;;;;;5029300;28;20041;-77
2022/01/28 12:13:12;;;;;;;6.40;2.00;;;;;;;;;;5017684;28;20037;-77
2022/01/28 12:16:09;;;;;;;11.20;2.17;;;;;;;;;;5016231;28;20044;-78
2022/01/28 12:18:44;;;;;;;9.80;1.63;;;;;;;;;;5014674;28;20029;-77
2022/01/28 12:21:14;;;;;;;3.80;1.47;;;;;;;;;;5012765;28;20509;-78
2022/01/28 12:23:40;;;;;;;4.10;1.03;;;;;;;;;;5019150;28;20049;-78
2022/01/28 12:26:06;;;;;;;9.20;1.77;;;;;;;;;;5028902;28;20060;-77
2022/01/28 12:28:32;;;;;;;3.17;0.80;;;;;;;;;;5029455;28;20042;-78
2022/01/28 12:31:03;;;;;;;12.33;1.47;;;;;;;;;;5014315;28;20034;-78
2022/01/28 12:33:30;;;;;;;6.90;1.17;;;;;;;;;;5031989;28;20120;-78
2022/01/28 12:35:57;;;;;;;9.07;1.10;;;;;;;;;;5016046;28;20030;-78
2022/01/28 12:38:26;;;;;;;12.20;1.13;;;;;;;;;;5030529;28;20041;-77
2022/01/28 12:40:54;;;;;;;4.70;1.43;;;;;;;;;;5012804;28;20034;-77
2022/01/28 12:43:21;;;;;;;5.80;1.17;;;;;;;;;;5022943;28;20057;-78
2022/01/28 12:45:57;;;;;;;10.73;2.13;;;;;;;;;;5030697;28;20031;-77
2022/01/28 12:48:23;;;;;;;5.70;1.67;;;;;;;;;;5014816;28;20029;-76
2022/01/28 12:50:49;;;;;;;3.97;1.50;;;;;;;;;;5014679;28;20052;-76
2022/01/28 12:53:26;;;;;;;7.03;1.10;;;;;;;;;;5032520;28;20041;-77
2022/01/28 12:55:52;;;;;;;3.33;0.97;;;;;;;;;;5032284;28;20029;-76
2022/01/28 12:58:18;;;;;;;10.47;1.83;;;;;;;;;;5017111;28;20397;-78
2022/01/28 13:00:46;;;;;;;4.57;1.67;;;;;;;;;;5015831;28;20041;-77
2022/01/28 13:03:28;;;;;;;1.17;0.50;;;;;;;;;;5030629;28;20114;-76
2022/01/28 13:05:57;;;;;;;5.23;1.97;;;;;;;;;;5018091;28;20029;-78
2022/01/28 13:08:29;;;;;;;7.97;1.20;;;;;;;;;;5031504;28;20289;-76
2022/01/28 13:10:55;;;;;;;8.00;1.23;;;;;;;;;;5032605;28;20041;-77
2022/01/28 13:13:21;;;;;;;6.90;1.47;;;;;;;;;;5018427;28;20477;-77
2022/01/28 13:15:53;;;;;;;5.33;0.87;;;;;;;;;;5017111;28;20033;-75
2022/01/28 13:18:19;;;;;;;3.00;0.85;;;;;;;;;;5018764;28;20041;-77
2022/01/28 13:20:45;;;;;;;3.27;1.27;;;;;;;;;;5020553;28;20026;-77
2022/01/28 13:23:14;;;;;;;6.47;1.47;;;;;;;;;;5033111;28;20061;-77
2022/01/28 13:25:42;;;;;;;5.33;1.53;;;;;;;;;;5020272;28;20664;-78
2022/01/28 13:28:12;;;;;;;4.10;0.63;;;;;;;;;;5033908;28;20099;-77
2022/01/28 13:30:40;;;;;;;5.87;0.90;;;;;;;;;;5020041;28;20038;-77
2022/01/28 13:33:07;;;;;;;3.63;0.73;;;;;;;;;;5023837;28;20037;-78
2022/01/28 13:35:37;;;;;;;5.80;0.90;;;;;;;;;;5036823;28;20084;-76
2022/01/28 13:38:05;;;;;;;4.50;1.13;;;;;;;;;;5025092;28;20925;-76
2022/01/28 13:40:33;;;;;;;7.07;1.40;;;;;;;;;;5025665;28;20022;-78
2022/01/28 13:43:09;;;;;;;5.70;0.90;;;;;;;;;;5037673;28;20058;-78
2022/01/28 13:45:47;;;;;;;4.13;1.30;;;;;;;;;;5045163;28;20025;-77
2022/01/28 13:48:20;;;;;;;6.27;1.77;;;;;;;;;;5017222;28;20034;-78
2022/01/28 13:50:47;;;;;;;7.78;1.38;;;;;;;;;;5023897;28;20030;-76
2022/01/28 13:55:55;;;;;;;6.10;1.70;;;;;;;;;;5019654;28;20034;-78
2022/01/28 13:58:21;;;;;;;2.57;1.03;;;;;;;;;;5022236;28;20044;-78
2022/01/28 14:00:51;;;;;;;2.77;0.47;;;;;;;;;;5037168;28;20045;-78
2022/01/28 14:03:21;;;;;;;7.17;1.47;;;;;;;;;;5035618;28;20034;-77
2022/01/28 14:05:56;;;;;;;3.23;1.07;;;;;;;;;;5024115;28;20037;-75
2022/01/28 14:08:38;;;;;;;2.93;1.10;;;;;;;;;;5037353;28;20472;-77
2022/01/28 14:11:26;;;;;;;4.35;1.05;;;;;;;;;;5037859;28;20041;-77
2022/01/28 14:17:04;;;;;;;5.37;1.53;;;;;;;;;;5021318;28;20358;-78
2022/01/28 14:19:34;;;;;;;6.00;1.50;;;;;;;;;;5018099;28;20978;-79
2022/01/28 14:22:00;;;;;;;1.90;1.10;;;;;;;;;;5021306;28;20029;-78
2022/01/28 14:25:43;;;;;;;5.80;2.20;;;;;;;;;;5144552;27;20417;-78
2022/01/28 14:30:40;;;;;;;3.33;1.90;;;;;;;;;;5121293;27;20484;-78
2022/01/28 14:33:06;;;;;;;5.80;1.60;;;;;;;;;;5126446;27;20373;-76
2022/01/28 14:35:33;;;;;;;9.17;2.10;;;;;;;;;;5124527;27;20351;-78
2022/01/28 14:38:05;;;;;;;5.93;1.70;;;;;;;;;;5136404;27;20458;-76
2022/01/28 14:40:33;;;;;;;3.22;1.40;;;;;;;;;;5128370;27;20165;-79
2022/01/28 14:42:59;;;;;;;3.80;1.60;;;;;;;;;;5128049;27;20040;-77
2022/01/28 14:45:25;;;;;;;3.67;1.17;;;;;;;;;;5142983;27;20084;-79
2022/01/28 14:47:51;;;;;;;8.47;2.17;;;;;;;;;;5135598;27;20027;-78
2022/01/28 14:50:17;;;;;;;2.77;1.43;;;;;;;;;;5125091;27;20035;-78
2022/01/28 14:52:43;;;;;;;3.83;1.47;;;;;;;;;;5126900;27;20038;-77
2022/01/28 14:55:09;;;;;;;8.57;0.93;;;;;;;;;;5133971;27;20457;-76
2022/01/28 14:57:35;;;;;;;1.50;0.87;;;;;;;;;;5130107;27;20038;-79
2022/01/28 15:00:02;;;;;;;5.13;1.17;;;;;;;;;;5136859;27;20096;-76
2022/01/28 15:02:35;;;;;;;5.73;1.20;;;;;;;;;;5125361;27;20031;-78
2022/01/28 15:05:01;;;;;;;1.90;1.08;;;;;;;;;;5127295;27;20046;-77
2022/01/28 15:07:31;;;;;;;3.03;1.23;;;;;;;;;;5124833;27;20031;-77
2022/01/28 15:10:00;;;;;;;7.87;1.80;;;;;;;;;;5140618;27;20066;-78
2022/01/28 15:12:30;;;;;;;3.43;1.53;;;;;;;;;;5143359;27;20443;-79
2022/01/28 15:14:57;;;;;;;3.93;1.50;;;;;;;;;;5137139;27;20096;-78
2022/01/28 15:17:23;;;;;;;8.00;2.37;;;;;;;;;;5127617;27;20077;-78
2022/01/28 15:19:49;;;;;;;3.37;1.67;;;;;;;;;;5142833;27;20031;-78
2022/01/28 15:22:15;;;;;;;6.07;1.70;;;;;;;;;;5133675;27;20041;-77
2022/01/28 15:24:41;;;;;;;6.43;2.13;;;;;;;;;;5123112;27;20031;-79
2022/01/28 15:27:10;;;;;;;3.80;1.80;;;;;;;;;;5137107;27;20034;-77
2022/01/28 15:29:48;;;;;;;12.70;2.20;;;;;;;;;;5123581;27;20023;-79
2022/01/28 15:37:32;;;;;;;7.80;1.83;;;;;;;;;;5111513;27;20118;-77
2022/01/28 15:39:58;;;;;;;3.33;1.67;;;;;;;;;;5129814;27;20031;-78
2022/01/28 15:42:24;;;;;;;8.93;2.43;;;;;;;;;;5115820;27;20435;-77
2022/01/28 15:44:51;;;;;;;10.00;2.17;;;;;;;;;;5119163;27;20038;-78
2022/01/28 15:47:19;;;;;;;4.13;1.97;;;;;;;;;;5113384;27;20038;-76
2022/01/28 15:49:47;;;;;;;3.07;1.73;;;;;;;;;;5129594;27;20019;-76
2022/01/28 15:52:13;;;;;;;9.73;3.13;;;;;;;;;;5110945;27;20023;-77
2022/01/28 15:54:39;;;;;;;6.73;2.20;;;;;;;;;;5110875;27;20115;-79
2022/01/28 15:57:05;;;;;;;5.47;2.83;;;;;;;;;;5120129;27;20452;-76
2022/01/28 15:59:31;;;;;;;7.03;2.70;;;;;;;;;;5125857;27;21553;-75
2022/01/28 16:01:59;;;;;;;9.77;3.07;;;;;;;;;;5129580;27;20043;-76
2022/01/28 16:04:25;;;;;;;6.20;2.27;;;;;;;;;;5111372;27;20091;-79
2022/01/28 16:06:54;;;;;;;13.67;2.77;;;;;;;;;;5112226;27;20040;-78
2022/01/28 16:09:23;;;;;;;11.67;3.07;;;;;;;;;;5125079;27;20023;-77
2022/01/28 16:11:52;;;;;;;10.00;3.43;;;;;;;;;;5109084;27;20015;-77
2022/01/28 16:14:28;;;;;;;13.40;3.20;;;;;;;;;;5106885;27;20026;-77
2022/01/28 16:19:34;;;;;;;9.23;2.70;;;;;;;;;;5106561;27;20452;-76
2022/01/28 16:22:00;;;;;;;8.43;3.80;;;;;;;;;;5108629;27;20181;-76
2022/01/28 16:24:29;;;;;;;11.77;3.07;;;;;;;;;;5109927;27;20123;-78
2022/01/28 16:26:58;;;;;;;7.87;2.13;;;;;;;;;;5117958;27;20360;-77
2022/01/28 16:29:26;;;;;;;8.90;3.13;;;;;;;;;;5116115;27;20020;-78
2022/01/28 16:31:53;;;;;;;5.80;3.20;;;;;;;;;;5106117;27;20027;-78
2022/01/28 16:34:21;;;;;;;12.23;3.63;;;;;;;;;;5118694;27;20068;-77
2022/01/28 16:36:50;;;;;;;9.80;3.90;;;;;;;;;;5117777;27;20459;-75
2022/01/28 16:39:16;;;;;;;12.37;4.67;;;;;;;;;;5127146;27;20147;-78